sensor_id;sensor_type;location;lat;lon;timestamp;temperature;humidity
44579;DHT22;37422;51.402;0.016;2022-12-07T00:01:37;5.40;99.90
44579;DHT22;37422;51.402;0.016;2022-12-07T00:04:11;5.40;99.90
44579;DHT22;37422;51.402;0.016;2022-12-07T00:06:44;5.40;99.90
44579;DHT22;37422;51.402;0.016;2022-12-07T00:09:14;5.40;99.90
44579;DHT22;37422;51.402;0.016;2022-12-07T00:11:42;5.40;99.90
44579;DHT22;37422;51.402;0.016;2022-12-07T00:14:12;5.40;99.90
44579;DHT22;37422;51.402;0.016;2022-12-07T00:16:41;5.50;99.90
44579;DHT22;37422;51.402;0.016;2022-12-07T00:19:10;5.50;99.90
44579;DHT22;37422;51.402;0.016;2022-12-07T00:21:38;5.50;99.90
44579;DHT22;37422;51.402;0.016;2022-12-07T00:24:06;5.50;99.90
44579;DHT22;37422;51.402;0.016;2022-12-07T00:26:36;5.50;99.90
44579;DHT22;37422;51.402;0.016;2022-12-07T00:29:17;5.50;99.90
44579;DHT22;37422;51.402;0.016;2022-12-07T00:31:46;5.50;99.90
44579;DHT22;37422;51.402;0.016;2022-12-07T00:34:17;5.50;99.90
44579;DHT22;37422;51.402;0.016;2022-12-07T00:36:45;5.50;99.90
44579;DHT22;37422;51.402;0.016;2022-12-07T00:39:13;5.50;99.90
44579;DHT22;37422;51.402;0.016;2022-12-07T00:41:41;5.50;99.90
44579;DHT22;37422;51.402;0.016;2022-12-07T00:44:09;5.60;99.90
44579;DHT22;37422;51.402;0.016;2022-12-07T00:46:37;5.50;99.90
44579;DHT22;37422;51.402;0.016;2022-12-07T00:49:05;5.50;99.90
44579;DHT22;37422;51.402;0.016;2022-12-07T00:51:32;5.50;99.90
44579;DHT22;37422;51.402;0.016;2022-12-07T00:54:00;5.50;99.90
44579;DHT22;37422;51.402;0.016;2022-12-07T00:56:29;5.50;99.90
44579;DHT22;37422;51.402;0.016;2022-12-07T00:59:02;5.40;99.90
44579;DHT22;37422;51.402;0.016;2022-12-07T01:01:32;5.40;99.90
44579;DHT22;37422;51.402;0.016;2022-12-07T01:04:00;5.40;99.90
44579;DHT22;37422;51.402;0.016;2022-12-07T01:06:31;5.40;99.90
44579;DHT22;37422;51.402;0.016;2022-12-07T01:08:59;5.40;99.90
44579;DHT22;37422;51.402;0.016;2022-12-07T01:11:29;5.30;99.90
44579;DHT22;37422;51.402;0.016;2022-12-07T01:13:58;5.30;99.90
44579;DHT22;37422;51.402;0.016;2022-12-07T01:16:28;5.20;99.90
44579;DHT22;37422;51.402;0.016;2022-12-07T01:18:58;5.20;99.90
44579;DHT22;37422;51.402;0.016;2022-12-07T01:21:29;5.20;99.90
44579;DHT22;37422;51.402;0.016;2022-12-07T01:23:57;5.10;99.90
44579;DHT22;37422;51.402;0.016;2022-12-07T01:26:25;5.10;99.90
44579;DHT22;37422;51.402;0.016;2022-12-07T01:28:53;5.10;99.90
44579;DHT22;37422;51.402;0.016;2022-12-07T01:31:24;5.00;99.90
44579;DHT22;37422;51.402;0.016;2022-12-07T01:33:55;5.00;99.90
44579;DHT22;37422;51.402;0.016;2022-12-07T01:36:28;5.00;99.90
44579;DHT22;37422;51.402;0.016;2022-12-07T01:38:58;5.00;99.90
44579;DHT22;37422;51.402;0.016;2022-12-07T01:41:29;5.00;99.90
44579;DHT22;37422;51.402;0.016;2022-12-07T01:46:34;5.10;99.90
44579;DHT22;37422;51.402;0.016;2022-12-07T01:49:04;5.10;99.90
44579;DHT22;37422;51.402;0.016;2022-12-07T01:51:33;5.10;99.90
44579;DHT22;37422;51.402;0.016;2022-12-07T01:54:02;5.10;99.90
44579;DHT22;37422;51.402;0.016;2022-12-07T01:56:30;5.10;99.90
44579;DHT22;37422;51.402;0.016;2022-12-07T01:59:00;5.10;99.90
44579;DHT22;37422;51.402;0.016;2022-12-07T02:01:28;5.00;99.90
44579;DHT22;37422;51.402;0.016;2022-12-07T02:03:56;5.00;99.90
44579;DHT22;37422;51.402;0.016;2022-12-07T02:06:25;5.00;99.90
44579;DHT22;37422;51.402;0.016;2022-12-07T02:08:53;4.90;99.90
44579;DHT22;37422;51.402;0.016;2022-12-07T02:11:21;4.90;99.90
44579;DHT22;37422;51.402;0.016;2022-12-07T02:13:49;4.80;99.90
44579;DHT22;37422;51.402;0.016;2022-12-07T02:24:27;4.80;99.90
44579;DHT22;37422;51.402;0.016;2022-12-07T02:27:14;4.80;99.90
44579;DHT22;37422;51.402;0.016;2022-12-07T02:30:03;4.70;99.90
44579;DHT22;37422;51.402;0.016;2022-12-07T02:32:57;4.70;99.90
44579;DHT22;37422;51.402;0.016;2022-12-07T02:38:43;4.60;99.90
44579;DHT22;37422;51.402;0.016;2022-12-07T02:41:17;4.60;99.90
44579;DHT22;37422;51.402;0.016;2022-12-07T02:43:55;4.60;99.90
44579;DHT22;37422;51.402;0.016;2022-12-07T02:46:40;4.50;99.90
44579;DHT22;37422;51.402;0.016;2022-12-07T02:49:10;4.50;99.90
44579;DHT22;37422;51.402;0.016;2022-12-07T02:51:43;4.50;99.90
44579;DHT22;37422;51.402;0.016;2022-12-07T02:54:13;4.50;99.90
44579;DHT22;37422;51.402;0.016;2022-12-07T03:07:54;4.80;99.90
44579;DHT22;37422;51.402;0.016;2022-12-07T03:13:33;4.80;99.90
44579;DHT22;37422;51.402;0.016;2022-12-07T03:19:11;4.80;99.90
44579;DHT22;37422;51.402;0.016;2022-12-07T03:21:44;4.90;99.90
44579;DHT22;37422;51.402;0.016;2022-12-07T03:24:17;4.90;99.90
44579;DHT22;37422;51.402;0.016;2022-12-07T03:26:49;4.90;99.90
44579;DHT22;37422;51.402;0.016;2022-12-07T03:29:42;4.90;99.90
44579;DHT22;37422;51.402;0.016;2022-12-07T03:35:12;4.90;99.90
44579;DHT22;37422;51.402;0.016;2022-12-07T03:40:43;4.90;99.90
44579;DHT22;37422;51.402;0.016;2022-12-07T03:43:14;4.90;99.90
44579;DHT22;37422;51.402;0.016;2022-12-07T03:45:44;4.90;99.90
44579;DHT22;37422;51.402;0.016;2022-12-07T03:48:24;4.90;99.90
44579;DHT22;37422;51.402;0.016;2022-12-07T03:51:04;4.90;99.90
44579;DHT22;37422;51.402;0.016;2022-12-07T03:56:11;5.00;99.90
44579;DHT22;37422;51.402;0.016;2022-12-07T03:58:40;5.00;99.90
44579;DHT22;37422;51.402;0.016;2022-12-07T04:01:08;5.00;99.90
44579;DHT22;37422;51.402;0.016;2022-12-07T04:03:36;5.00;99.90
44579;DHT22;37422;51.402;0.016;2022-12-07T04:06:04;5.00;99.90
44579;DHT22;37422;51.402;0.016;2022-12-07T04:08:32;5.00;99.90
44579;DHT22;37422;51.402;0.016;2022-12-07T04:11:01;5.00;99.90
44579;DHT22;37422;51.402;0.016;2022-12-07T04:13:29;5.00;99.90
44579;DHT22;37422;51.402;0.016;2022-12-07T04:15:56;5.00;99.90
44579;DHT22;37422;51.402;0.016;2022-12-07T04:18:24;5.00;99.90
44579;DHT22;37422;51.402;0.016;2022-12-07T04:20:52;5.00;99.90
44579;DHT22;37422;51.402;0.016;2022-12-07T04:23:19;5.00;99.90
44579;DHT22;37422;51.402;0.016;2022-12-07T04:25:48;5.00;99.90
44579;DHT22;37422;51.402;0.016;2022-12-07T04:28:16;5.00;99.90
44579;DHT22;37422;51.402;0.016;2022-12-07T04:30:45;5.00;99.90
44579;DHT22;37422;51.402;0.016;2022-12-07T04:33:12;5.00;99.90
44579;DHT22;37422;51.402;0.016;2022-12-07T04:35:42;5.00;99.90
44579;DHT22;37422;51.402;0.016;2022-12-07T04:38:10;5.00;99.90
44579;DHT22;37422;51.402;0.016;2022-12-07T04:40:37;5.10;99.90
44579;DHT22;37422;51.402;0.016;2022-12-07T04:43:05;5.10;99.90
44579;DHT22;37422;51.402;0.016;2022-12-07T04:45:33;5.00;99.90
44579;DHT22;37422;51.402;0.016;2022-12-07T04:48:01;5.00;99.90
44579;DHT22;37422;51.402;0.016;2022-12-07T04:50:28;5.00;99.90
44579;DHT22;37422;51.402;0.016;2022-12-07T04:52:56;5.10;99.90
44579;DHT22;37422;51.402;0.016;2022-12-07T04:55:24;5.00;99.90
44579;DHT22;37422;51.402;0.016;2022-12-07T04:57:51;5.00;99.90
44579;DHT22;37422;51.402;0.016;2022-12-07T05:00:19;5.00;99.90
44579;DHT22;37422;51.402;0.016;2022-12-07T05:02:47;5.00;99.90
44579;DHT22;37422;51.402;0.016;2022-12-07T05:05:14;5.00;99.90
44579;DHT22;37422;51.402;0.016;2022-12-07T05:07:42;5.00;99.90
44579;DHT22;37422;51.402;0.016;2022-12-07T05:10:10;4.90;99.90
44579;DHT22;37422;51.402;0.016;2022-12-07T05:12:37;5.00;99.90
44579;DHT22;37422;51.402;0.016;2022-12-07T05:15:05;5.00;99.90
44579;DHT22;37422;51.402;0.016;2022-12-07T05:17:33;5.00;99.90
44579;DHT22;37422;51.402;0.016;2022-12-07T05:20:01;5.00;99.90
44579;DHT22;37422;51.402;0.016;2022-12-07T05:22:29;5.00;99.90
44579;DHT22;37422;51.402;0.016;2022-12-07T05:24:57;5.00;99.90
44579;DHT22;37422;51.402;0.016;2022-12-07T05:27:24;5.00;99.90
44579;DHT22;37422;51.402;0.016;2022-12-07T05:29:52;5.00;99.90
44579;DHT22;37422;51.402;0.016;2022-12-07T05:32:20;5.00;99.90
44579;DHT22;37422;51.402;0.016;2022-12-07T05:34:47;5.00;99.90
44579;DHT22;37422;51.402;0.016;2022-12-07T05:37:15;5.00;99.90
44579;DHT22;37422;51.402;0.016;2022-12-07T05:39:43;5.10;99.90
44579;DHT22;37422;51.402;0.016;2022-12-07T05:42:11;5.10;99.90
44579;DHT22;37422;51.402;0.016;2022-12-07T05:44:40;5.00;99.90
44579;DHT22;37422;51.402;0.016;2022-12-07T05:47:08;5.00;99.90
44579;DHT22;37422;51.402;0.016;2022-12-07T05:49:36;5.10;99.90
44579;DHT22;37422;51.402;0.016;2022-12-07T05:52:04;5.10;99.90
44579;DHT22;37422;51.402;0.016;2022-12-07T05:54:32;5.10;99.90
44579;DHT22;37422;51.402;0.016;2022-12-07T05:57:00;5.10;99.90
44579;DHT22;37422;51.402;0.016;2022-12-07T05:59:27;5.10;99.90
44579;DHT22;37422;51.402;0.016;2022-12-07T06:02:12;5.10;99.90
44579;DHT22;37422;51.402;0.016;2022-12-07T06:04:42;5.10;99.90
44579;DHT22;37422;51.402;0.016;2022-12-07T06:07:13;5.10;99.90
44579;DHT22;37422;51.402;0.016;2022-12-07T06:09:41;5.10;99.90
44579;DHT22;37422;51.402;0.016;2022-12-07T06:12:11;5.10;99.90
44579;DHT22;37422;51.402;0.016;2022-12-07T06:14:57;5.10;99.90
44579;DHT22;37422;51.402;0.016;2022-12-07T06:17:25;5.10;99.90
44579;DHT22;37422;51.402;0.016;2022-12-07T06:19:53;5.10;99.90
44579;DHT22;37422;51.402;0.016;2022-12-07T06:22:21;5.20;99.90
44579;DHT22;37422;51.402;0.016;2022-12-07T06:24:49;5.20;99.90
44579;DHT22;37422;51.402;0.016;2022-12-07T06:27:16;5.10;99.90
44579;DHT22;37422;51.402;0.016;2022-12-07T06:29:44;5.10;99.90
44579;DHT22;37422;51.402;0.016;2022-12-07T06:32:12;5.10;99.90
44579;DHT22;37422;51.402;0.016;2022-12-07T06:34:40;5.10;99.90
44579;DHT22;37422;51.402;0.016;2022-12-07T06:37:08;5.00;99.90
44579;DHT22;37422;51.402;0.016;2022-12-07T06:39:35;5.00;99.90
44579;DHT22;37422;51.402;0.016;2022-12-07T06:42:03;5.00;99.90
44579;DHT22;37422;51.402;0.016;2022-12-07T06:44:31;5.00;99.90
44579;DHT22;37422;51.402;0.016;2022-12-07T06:47:02;5.00;99.90
44579;DHT22;37422;51.402;0.016;2022-12-07T06:49:51;5.00;99.90
44579;DHT22;37422;51.402;0.016;2022-12-07T06:52:19;5.00;99.90
44579;DHT22;37422;51.402;0.016;2022-12-07T06:54:47;5.00;99.90
44579;DHT22;37422;51.402;0.016;2022-12-07T06:57:15;5.00;99.90
44579;DHT22;37422;51.402;0.016;2022-12-07T06:59:42;5.00;99.90
44579;DHT22;37422;51.402;0.016;2022-12-07T07:02:11;5.00;99.90
44579;DHT22;37422;51.402;0.016;2022-12-07T07:04:38;5.00;99.90
44579;DHT22;37422;51.402;0.016;2022-12-07T07:07:06;5.00;99.90
44579;DHT22;37422;51.402;0.016;2022-12-07T07:09:34;5.00;99.90
44579;DHT22;37422;51.402;0.016;2022-12-07T07:12:02;5.00;99.90
44579;DHT22;37422;51.402;0.016;2022-12-07T07:14:30;5.00;99.90
44579;DHT22;37422;51.402;0.016;2022-12-07T07:16:57;5.00;99.90
44579;DHT22;37422;51.402;0.016;2022-12-07T07:19:25;4.90;99.90
44579;DHT22;37422;51.402;0.016;2022-12-07T07:21:53;4.90;99.90
44579;DHT22;37422;51.402;0.016;2022-12-07T07:24:21;5.00;99.90
44579;DHT22;37422;51.402;0.016;2022-12-07T07:26:48;4.90;99.90
44579;DHT22;37422;51.402;0.016;2022-12-07T07:29:16;5.00;99.90
44579;DHT22;37422;51.402;0.016;2022-12-07T07:31:44;5.00;99.90
44579;DHT22;37422;51.402;0.016;2022-12-07T07:34:11;5.00;99.90
44579;DHT22;37422;51.402;0.016;2022-12-07T07:36:39;4.90;99.90
44579;DHT22;37422;51.402;0.016;2022-12-07T07:39:07;5.00;99.90
44579;DHT22;37422;51.402;0.016;2022-12-07T07:41:35;5.00;99.90
44579;DHT22;37422;51.402;0.016;2022-12-07T07:44:03;5.00;99.90
44579;DHT22;37422;51.402;0.016;2022-12-07T07:46:30;5.00;99.90
44579;DHT22;37422;51.402;0.016;2022-12-07T07:49:00;5.00;99.90
44579;DHT22;37422;51.402;0.016;2022-12-07T07:51:28;5.00;99.90
44579;DHT22;37422;51.402;0.016;2022-12-07T07:53:56;5.00;99.90
44579;DHT22;37422;51.402;0.016;2022-12-07T07:56:24;5.00;99.90
44579;DHT22;37422;51.402;0.016;2022-12-07T07:58:52;5.00;99.90
44579;DHT22;37422;51.402;0.016;2022-12-07T08:01:20;5.00;99.90
44579;DHT22;37422;51.402;0.016;2022-12-07T08:03:47;5.00;99.90
44579;DHT22;37422;51.402;0.016;2022-12-07T08:06:15;5.00;99.90
44579;DHT22;37422;51.402;0.016;2022-12-07T08:08:43;5.00;99.90
44579;DHT22;37422;51.402;0.016;2022-12-07T08:11:11;5.00;99.90
44579;DHT22;37422;51.402;0.016;2022-12-07T08:13:39;5.00;99.90
44579;DHT22;37422;51.402;0.016;2022-12-07T08:16:09;5.00;99.90
44579;DHT22;37422;51.402;0.016;2022-12-07T08:18:38;5.00;99.90
44579;DHT22;37422;51.402;0.016;2022-12-07T08:21:11;5.00;99.90
44579;DHT22;37422;51.402;0.016;2022-12-07T08:23:39;5.00;99.90
44579;DHT22;37422;51.402;0.016;2022-12-07T08:26:10;5.10;99.90
44579;DHT22;37422;51.402;0.016;2022-12-07T08:28:38;5.10;99.90
44579;DHT22;37422;51.402;0.016;2022-12-07T08:31:13;5.10;99.90
44579;DHT22;37422;51.402;0.016;2022-12-07T08:33:42;5.10;99.90
44579;DHT22;37422;51.402;0.016;2022-12-07T08:36:11;5.10;99.90
44579;DHT22;37422;51.402;0.016;2022-12-07T08:38:41;5.10;99.90
44579;DHT22;37422;51.402;0.016;2022-12-07T08:41:22;5.10;99.90
44579;DHT22;37422;51.402;0.016;2022-12-07T08:43:51;5.10;99.90
44579;DHT22;37422;51.402;0.016;2022-12-07T08:46:39;5.10;99.90
44579;DHT22;37422;51.402;0.016;2022-12-07T08:49:32;5.10;99.90
44579;DHT22;37422;51.402;0.016;2022-12-07T08:52:03;5.10;99.90
44579;DHT22;37422;51.402;0.016;2022-12-07T08:54:34;5.10;99.90
44579;DHT22;37422;51.402;0.016;2022-12-07T08:57:03;5.10;99.90
44579;DHT22;37422;51.402;0.016;2022-12-07T08:59:33;5.10;99.90
44579;DHT22;37422;51.402;0.016;2022-12-07T09:02:02;5.10;99.90
44579;DHT22;37422;51.402;0.016;2022-12-07T09:04:30;5.20;99.90
44579;DHT22;37422;51.402;0.016;2022-12-07T09:06:58;5.20;99.90
44579;DHT22;37422;51.402;0.016;2022-12-07T09:09:26;5.20;99.90
44579;DHT22;37422;51.402;0.016;2022-12-07T09:11:54;5.20;99.90
44579;DHT22;37422;51.402;0.016;2022-12-07T09:14:22;5.20;99.90
44579;DHT22;37422;51.402;0.016;2022-12-07T09:16:50;5.20;99.90
44579;DHT22;37422;51.402;0.016;2022-12-07T09:19:17;5.20;99.90
44579;DHT22;37422;51.402;0.016;2022-12-07T09:21:45;5.20;99.90
44579;DHT22;37422;51.402;0.016;2022-12-07T09:24:13;5.30;99.90
44579;DHT22;37422;51.402;0.016;2022-12-07T09:26:41;5.30;99.90
44579;DHT22;37422;51.402;0.016;2022-12-07T09:29:09;5.30;99.90
44579;DHT22;37422;51.402;0.016;2022-12-07T09:31:37;5.40;99.90
44579;DHT22;37422;51.402;0.016;2022-12-07T09:34:05;5.40;99.90
44579;DHT22;37422;51.402;0.016;2022-12-07T09:36:33;5.50;99.90
44579;DHT22;37422;51.402;0.016;2022-12-07T09:39:01;5.60;99.90
44579;DHT22;37422;51.402;0.016;2022-12-07T09:41:32;5.70;99.90
44579;DHT22;37422;51.402;0.016;2022-12-07T09:44:06;5.90;99.90
44579;DHT22;37422;51.402;0.016;2022-12-07T09:46:37;6.00;99.90
44579;DHT22;37422;51.402;0.016;2022-12-07T09:49:05;6.10;99.90
44579;DHT22;37422;51.402;0.016;2022-12-07T09:51:40;6.10;99.90
44579;DHT22;37422;51.402;0.016;2022-12-07T09:54:09;6.10;99.90
44579;DHT22;37422;51.402;0.016;2022-12-07T09:56:40;6.20;99.90
44579;DHT22;37422;51.402;0.016;2022-12-07T09:59:18;6.20;99.90
44579;DHT22;37422;51.402;0.016;2022-12-07T10:01:48;6.20;99.90
44579;DHT22;37422;51.402;0.016;2022-12-07T10:04:18;6.30;99.90
44579;DHT22;37422;51.402;0.016;2022-12-07T10:06:47;6.30;99.90
44579;DHT22;37422;51.402;0.016;2022-12-07T10:09:18;6.30;99.90
44579;DHT22;37422;51.402;0.016;2022-12-07T10:12:05;6.30;99.90
44579;DHT22;37422;51.402;0.016;2022-12-07T10:14:36;6.40;99.90
44579;DHT22;37422;51.402;0.016;2022-12-07T10:17:35;6.40;99.90
44579;DHT22;37422;51.402;0.016;2022-12-07T10:23:01;6.80;99.90
44579;DHT22;37422;51.402;0.016;2022-12-07T10:25:32;7.10;99.90
44579;DHT22;37422;51.402;0.016;2022-12-07T10:28:19;7.30;99.90
44579;DHT22;37422;51.402;0.016;2022-12-07T10:31:16;7.60;99.90
44579;DHT22;37422;51.402;0.016;2022-12-07T10:33:54;7.70;99.90
44579;DHT22;37422;51.402;0.016;2022-12-07T10:36:27;7.70;99.90
44579;DHT22;37422;51.402;0.016;2022-12-07T10:41:31;7.50;99.90
44579;DHT22;37422;51.402;0.016;2022-12-07T10:43:58;7.50;99.90
44579;DHT22;37422;51.402;0.016;2022-12-07T10:46:41;7.70;99.90
44579;DHT22;37422;51.402;0.016;2022-12-07T11:10:02;7.60;99.90
44579;DHT22;37422;51.402;0.016;2022-12-07T11:21:55;7.20;99.90
44579;DHT22;37422;51.402;0.016;2022-12-07T11:24:39;7.10;99.90
44579;DHT22;37422;51.402;0.016;2022-12-07T11:27:29;7.00;99.90
44579;DHT22;37422;51.402;0.016;2022-12-07T11:30:09;7.00;99.90
44579;DHT22;37422;51.402;0.016;2022-12-07T11:35:43;7.00;99.90
44579;DHT22;37422;51.402;0.016;2022-12-07T11:38:50;7.10;99.90
44579;DHT22;37422;51.402;0.016;2022-12-07T11:41:26;7.20;99.90
44579;DHT22;37422;51.402;0.016;2022-12-07T11:46:58;7.40;99.90
44579;DHT22;37422;51.402;0.016;2022-12-07T11:58:39;7.40;99.90
44579;DHT22;37422;51.402;0.016;2022-12-07T12:03:47;7.20;99.90
44579;DHT22;37422;51.402;0.016;2022-12-07T12:06:20;7.20;99.90
44579;DHT22;37422;51.402;0.016;2022-12-07T12:12:14;7.00;99.90
44579;DHT22;37422;51.402;0.016;2022-12-07T12:26:03;7.00;99.90
44579;DHT22;37422;51.402;0.016;2022-12-07T12:33:38;7.10;99.90
44579;DHT22;37422;51.402;0.016;2022-12-07T12:39:09;8.00;99.90
44579;DHT22;37422;51.402;0.016;2022-12-07T12:47:37;10.00;99.90
44579;DHT22;37422;51.402;0.016;2022-12-07T12:50:26;10.10;99.90
44579;DHT22;37422;51.402;0.016;2022-12-07T12:52:58;10.00;99.90
44579;DHT22;37422;51.402;0.016;2022-12-07T12:55:50;9.70;99.90
44579;DHT22;37422;51.402;0.016;2022-12-07T12:58:30;9.40;99.90
44579;DHT22;37422;51.402;0.016;2022-12-07T13:03:56;9.00;99.90
44579;DHT22;37422;51.402;0.016;2022-12-07T13:08:56;8.50;99.90
44579;DHT22;37422;51.402;0.016;2022-12-07T13:11:33;8.30;99.90
44579;DHT22;37422;51.402;0.016;2022-12-07T13:17:11;7.80;99.90
44579;DHT22;37422;51.402;0.016;2022-12-07T13:20:03;7.50;99.90
44579;DHT22;37422;51.402;0.016;2022-12-07T13:25:30;7.10;99.90
44579;DHT22;37422;51.402;0.016;2022-12-07T13:31:03;6.80;99.90
44579;DHT22;37422;51.402;0.016;2022-12-07T13:33:34;6.80;99.90
44579;DHT22;37422;51.402;0.016;2022-12-07T13:36:09;6.70;99.90
44579;DHT22;37422;51.402;0.016;2022-12-07T13:38:52;6.70;99.90
44579;DHT22;37422;51.402;0.016;2022-12-07T13:41:25;6.80;99.90
44579;DHT22;37422;51.402;0.016;2022-12-07T13:44:09;6.90;99.90
44579;DHT22;37422;51.402;0.016;2022-12-07T13:51:54;7.40;99.90
44579;DHT22;37422;51.402;0.016;2022-12-07T13:54:22;7.50;99.90
44579;DHT22;37422;51.402;0.016;2022-12-07T13:56:51;7.60;99.90
44579;DHT22;37422;51.402;0.016;2022-12-07T13:59:22;7.60;99.90
44579;DHT22;37422;51.402;0.016;2022-12-07T14:01:52;7.60;99.90
44579;DHT22;37422;51.402;0.016;2022-12-07T14:04:32;7.50;99.90
44579;DHT22;37422;51.402;0.016;2022-12-07T14:07:01;7.40;99.90
44579;DHT22;37422;51.402;0.016;2022-12-07T14:10:05;7.30;99.90
44579;DHT22;37422;51.402;0.016;2022-12-07T14:12:36;7.30;99.90
44579;DHT22;37422;51.402;0.016;2022-12-07T14:15:04;7.30;99.90
44579;DHT22;37422;51.402;0.016;2022-12-07T14:17:33;7.20;99.90
44579;DHT22;37422;51.402;0.016;2022-12-07T14:20:02;7.20;99.90
44579;DHT22;37422;51.402;0.016;2022-12-07T14:22:34;7.10;99.90
44579;DHT22;37422;51.402;0.016;2022-12-07T14:25:20;7.10;99.90
44579;DHT22;37422;51.402;0.016;2022-12-07T14:27:54;7.20;99.90
44579;DHT22;37422;51.402;0.016;2022-12-07T14:30:31;7.20;99.90
44579;DHT22;37422;51.402;0.016;2022-12-07T14:33:02;7.20;99.90
44579;DHT22;37422;51.402;0.016;2022-12-07T14:35:31;7.30;99.90
44579;DHT22;37422;51.402;0.016;2022-12-07T14:37:59;7.20;99.90
44579;DHT22;37422;51.402;0.016;2022-12-07T14:40:28;7.20;99.90
44579;DHT22;37422;51.402;0.016;2022-12-07T14:43:14;7.20;99.90
44579;DHT22;37422;51.402;0.016;2022-12-07T14:45:42;7.30;99.90
44579;DHT22;37422;51.402;0.016;2022-12-07T14:48:12;7.20;99.90
44579;DHT22;37422;51.402;0.016;2022-12-07T14:51:01;7.10;99.90
44579;DHT22;37422;51.402;0.016;2022-12-07T14:53:51;7.00;99.90
44579;DHT22;37422;51.402;0.016;2022-12-07T14:56:27;6.80;99.90
44579;DHT22;37422;51.402;0.016;2022-12-07T14:58:55;6.70;99.90
44579;DHT22;37422;51.402;0.016;2022-12-07T15:01:23;6.60;99.90
44579;DHT22;37422;51.402;0.016;2022-12-07T15:03:51;6.60;99.90
44579;DHT22;37422;51.402;0.016;2022-12-07T15:06:19;6.60;99.90
44579;DHT22;37422;51.402;0.016;2022-12-07T15:08:47;6.50;99.90
44579;DHT22;37422;51.402;0.016;2022-12-07T15:11:17;6.50;99.90
44579;DHT22;37422;51.402;0.016;2022-12-07T15:13:45;6.40;99.90
44579;DHT22;37422;51.402;0.016;2022-12-07T15:16:32;6.30;99.90
44579;DHT22;37422;51.402;0.016;2022-12-07T15:19:21;6.30;99.90
44579;DHT22;37422;51.402;0.016;2022-12-07T15:21:56;6.20;99.90
44579;DHT22;37422;51.402;0.016;2022-12-07T15:24:24;6.10;99.90
44579;DHT22;37422;51.402;0.016;2022-12-07T15:26:53;6.00;99.90
44579;DHT22;37422;51.402;0.016;2022-12-07T15:29:21;5.90;99.90
44579;DHT22;37422;51.402;0.016;2022-12-07T15:31:51;5.80;99.90
44579;DHT22;37422;51.402;0.016;2022-12-07T15:34:26;5.60;99.90
44579;DHT22;37422;51.402;0.016;2022-12-07T15:37:06;5.50;99.90
44579;DHT22;37422;51.402;0.016;2022-12-07T15:39:36;5.40;99.90
44579;DHT22;37422;51.402;0.016;2022-12-07T15:42:04;5.30;99.90
44579;DHT22;37422;51.402;0.016;2022-12-07T15:44:34;5.20;99.90
44579;DHT22;37422;51.402;0.016;2022-12-07T15:47:20;5.10;99.90
44579;DHT22;37422;51.402;0.016;2022-12-07T15:49:48;5.00;99.90
44579;DHT22;37422;51.402;0.016;2022-12-07T15:52:16;5.00;99.90
44579;DHT22;37422;51.402;0.016;2022-12-07T15:54:44;4.90;99.90
44579;DHT22;37422;51.402;0.016;2022-12-07T15:57:12;4.90;99.90
44579;DHT22;37422;51.402;0.016;2022-12-07T15:59:39;4.90;99.90
44579;DHT22;37422;51.402;0.016;2022-12-07T16:02:09;4.90;99.90
44579;DHT22;37422;51.402;0.016;2022-12-07T16:04:37;4.90;99.90
44579;DHT22;37422;51.402;0.016;2022-12-07T16:07:05;4.90;99.90
44579;DHT22;37422;51.402;0.016;2022-12-07T16:09:33;4.90;99.90
44579;DHT22;37422;51.402;0.016;2022-12-07T16:12:00;4.80;99.90
44579;DHT22;37422;51.402;0.016;2022-12-07T16:14:31;4.80;99.90
44579;DHT22;37422;51.402;0.016;2022-12-07T16:17:00;4.70;99.90
44579;DHT22;37422;51.402;0.016;2022-12-07T16:19:28;4.70;99.90
44579;DHT22;37422;51.402;0.016;2022-12-07T16:21:57;4.70;99.90
44579;DHT22;37422;51.402;0.016;2022-12-07T16:24:25;4.60;99.90
44579;DHT22;37422;51.402;0.016;2022-12-07T16:26:53;4.60;99.90
44579;DHT22;37422;51.402;0.016;2022-12-07T16:29:22;4.50;99.90
44579;DHT22;37422;51.402;0.016;2022-12-07T16:31:53;4.40;99.90
44579;DHT22;37422;51.402;0.016;2022-12-07T16:34:21;4.40;99.90
44579;DHT22;37422;51.402;0.016;2022-12-07T16:36:49;4.30;99.90
44579;DHT22;37422;51.402;0.016;2022-12-07T16:39:33;4.30;99.90
44579;DHT22;37422;51.402;0.016;2022-12-07T16:42:02;4.30;99.90
44579;DHT22;37422;51.402;0.016;2022-12-07T16:44:30;4.20;99.90
44579;DHT22;37422;51.402;0.016;2022-12-07T16:46:59;4.20;99.90
44579;DHT22;37422;51.402;0.016;2022-12-07T16:49:28;4.10;99.90
44579;DHT22;37422;51.402;0.016;2022-12-07T16:51:56;4.00;99.90
44579;DHT22;37422;51.402;0.016;2022-12-07T16:54:47;3.90;99.90
44579;DHT22;37422;51.402;0.016;2022-12-07T16:57:16;3.80;99.90
44579;DHT22;37422;51.402;0.016;2022-12-07T16:59:50;3.70;99.90
44579;DHT22;37422;51.402;0.016;2022-12-07T17:02:18;3.70;99.90
44579;DHT22;37422;51.402;0.016;2022-12-07T17:04:47;3.60;99.90
44579;DHT22;37422;51.402;0.016;2022-12-07T17:07:14;3.50;99.90
44579;DHT22;37422;51.402;0.016;2022-12-07T17:09:42;3.40;99.90
44579;DHT22;37422;51.402;0.016;2022-12-07T17:12:10;3.30;99.90
44579;DHT22;37422;51.402;0.016;2022-12-07T17:14:38;3.30;99.90
44579;DHT22;37422;51.402;0.016;2022-12-07T17:17:24;3.20;99.90
44579;DHT22;37422;51.402;0.016;2022-12-07T17:19:52;3.20;99.90
44579;DHT22;37422;51.402;0.016;2022-12-07T17:22:20;3.10;99.90
44579;DHT22;37422;51.402;0.016;2022-12-07T17:24:48;3.10;99.90
44579;DHT22;37422;51.402;0.016;2022-12-07T17:27:16;3.10;99.90
44579;DHT22;37422;51.402;0.016;2022-12-07T17:29:44;3.10;99.90
44579;DHT22;37422;51.402;0.016;2022-12-07T17:32:12;3.00;99.90
44579;DHT22;37422;51.402;0.016;2022-12-07T17:34:40;3.30;99.90
44579;DHT22;37422;51.402;0.016;2022-12-07T17:37:07;3.00;99.90
44579;DHT22;37422;51.402;0.016;2022-12-07T17:39:35;3.60;99.90
44579;DHT22;37422;51.402;0.016;2022-12-07T17:42:03;3.00;99.90
44579;DHT22;37422;51.402;0.016;2022-12-07T17:44:49;3.00;99.90
44579;DHT22;37422;51.402;0.016;2022-12-07T17:47:17;3.30;99.90
44579;DHT22;37422;51.402;0.016;2022-12-07T17:49:45;3.00;99.90
44579;DHT22;37422;51.402;0.016;2022-12-07T17:52:13;3.00;99.90
44579;DHT22;37422;51.402;0.016;2022-12-07T17:54:59;3.00;99.90
44579;DHT22;37422;51.402;0.016;2022-12-07T17:57:28;3.00;99.90
44579;DHT22;37422;51.402;0.016;2022-12-07T17:59:56;2.90;99.90
44579;DHT22;37422;51.402;0.016;2022-12-07T18:02:23;2.90;99.90
44579;DHT22;37422;51.402;0.016;2022-12-07T18:04:51;2.90;99.90
44579;DHT22;37422;51.402;0.016;2022-12-07T18:07:19;2.80;99.90
44579;DHT22;37422;51.402;0.016;2022-12-07T18:09:47;2.70;99.90
44579;DHT22;37422;51.402;0.016;2022-12-07T18:12:15;2.70;99.90
44579;DHT22;37422;51.402;0.016;2022-12-07T18:14:43;2.70;99.90
44579;DHT22;37422;51.402;0.016;2022-12-07T18:17:11;2.80;99.90
44579;DHT22;37422;51.402;0.016;2022-12-07T18:19:38;2.50;99.90
44579;DHT22;37422;51.402;0.016;2022-12-07T18:22:06;2.50;99.90
44579;DHT22;37422;51.402;0.016;2022-12-07T18:24:34;2.40;99.90
44579;DHT22;37422;51.402;0.016;2022-12-07T18:27:05;2.30;99.90
44579;DHT22;37422;51.402;0.016;2022-12-07T18:29:33;2.30;99.90
44579;DHT22;37422;51.402;0.016;2022-12-07T18:32:01;2.20;99.90